createdAt,value
2022-09-18T00:00:59.202Z,9.14
2022-09-18T00:03:27.118Z,9.04
2022-09-18T00:05:53.467Z,9.16
2022-09-18T00:08:19.785Z,9.12
2022-09-18T00:10:46.567Z,9.11
2022-09-18T00:13:13.525Z,9.18
2022-09-18T00:18:57.966Z,9.23
2022-09-18T00:21:25.226Z,9.25
2022-09-18T00:23:55.548Z,9.27
2022-09-18T00:26:22.152Z,9.23
2022-09-18T00:28:49.897Z,9.30
2022-09-18T00:31:20.311Z,9.29
2022-09-18T00:33:48.386Z,9.31
2022-09-18T00:36:19.139Z,9.38
2022-09-18T00:38:47.482Z,9.44
2022-09-18T00:41:17.742Z,9.39
2022-09-18T00:43:45.514Z,9.40
2022-09-18T00:46:25.136Z,9.40
2022-09-18T00:49:04.059Z,9.30
2022-09-18T00:51:35.067Z,9.20
2022-09-18T00:54:09.386Z,9.13
2022-09-18T00:56:38.116Z,9.12
2022-09-18T00:59:05.918Z,9.18
2022-09-18T01:01:33.671Z,9.10
2022-09-18T01:04:01.367Z,9.08
2022-09-18T01:06:37.769Z,9.11
2022-09-18T01:09:27.733Z,9.20
2022-09-18T01:12:06.550Z,9.25
2022-09-18T01:14:41.468Z,9.30
2022-09-18T01:17:16.497Z,9.26
2022-09-18T01:20:19.130Z,9.25
2022-09-18T01:23:12.905Z,9.31
2022-09-18T01:25:54.053Z,9.26
2022-09-18T01:28:30.563Z,9.29
2022-09-18T01:31:06.471Z,9.29
2022-09-18T01:33:41.220Z,9.26
2022-09-18T01:36:12.462Z,9.18
2022-09-18T01:43:43.879Z,9.10
2022-09-18T01:46:15.662Z,9.08
2022-09-18T01:48:47.471Z,9.07
2022-09-18T01:51:19.584Z,9.09
2022-09-18T01:53:49.183Z,9.12
2022-09-18T01:56:19.695Z,9.13
2022-09-18T01:58:49.261Z,9.15
2022-09-18T02:20:40.849Z,9.26
2022-09-18T02:23:08.804Z,9.25
2022-09-18T02:25:41.281Z,9.25
2022-09-18T02:28:11.588Z,9.22
2022-09-18T02:30:39.971Z,9.27
2022-09-18T02:33:26.964Z,9.26
2022-09-18T02:36:09.419Z,9.24
2022-09-18T02:38:44.432Z,9.26
2022-09-18T02:41:22.957Z,9.36
2022-09-18T02:43:55.864Z,9.36
2022-09-18T02:46:33.541Z,9.29
2022-09-18T02:49:09.907Z,9.30
2022-09-18T02:51:46.046Z,9.36
2022-09-18T02:54:19.212Z,9.37
2022-09-18T02:56:51.398Z,9.45
2022-09-18T02:59:23.396Z,9.42
2022-09-18T03:01:52.238Z,9.43
2022-09-18T03:04:22.879Z,9.48
2022-09-18T03:06:51.838Z,9.36
2022-09-18T03:09:19.943Z,9.45
2022-09-18T03:11:47.596Z,9.52
2022-09-18T03:14:15.174Z,9.45
2022-09-18T03:16:42.978Z,9.47
2022-09-18T03:19:11.784Z,9.51
2022-09-18T03:21:39.757Z,9.49
2022-09-18T03:24:08.810Z,9.53
2022-09-18T03:26:36.469Z,9.58
2022-09-18T03:29:08.032Z,9.49
2022-09-18T03:31:35.833Z,9.43
2022-09-18T03:34:03.878Z,9.46
2022-09-18T03:36:31.670Z,9.49
2022-09-18T03:38:59.500Z,9.53
2022-09-18T03:41:28.442Z,9.52
2022-09-18T03:43:56.709Z,9.63
2022-09-18T03:46:24.296Z,9.56
2022-09-18T03:48:52.090Z,9.54
2022-09-18T03:51:20.383Z,9.50
2022-09-18T03:53:49.017Z,9.49
2022-09-18T03:56:16.987Z,9.44
2022-09-18T03:58:46.526Z,9.49
2022-09-18T04:01:14.573Z,9.53
2022-09-18T04:03:42.212Z,9.53
2022-09-18T04:06:09.891Z,9.65
2022-09-18T04:08:38.368Z,9.64
2022-09-18T04:11:06.721Z,9.58
2022-09-18T04:13:35.078Z,9.53
2022-09-18T04:16:04.177Z,9.51
2022-09-18T04:18:31.991Z,9.57
2022-09-18T04:20:59.946Z,9.51
2022-09-18T04:23:27.575Z,9.47
2022-09-18T04:25:55.371Z,9.51
2022-09-18T04:28:25.356Z,9.56
2022-09-18T04:30:52.984Z,9.65
2022-09-18T04:33:22.023Z,9.66
2022-09-18T04:35:49.580Z,9.60
2022-09-18T04:38:17.137Z,9.60
2022-09-18T04:40:44.789Z,9.64
2022-09-18T04:43:12.537Z,9.59
2022-09-18T04:45:41.324Z,9.57
2022-09-18T04:48:09.025Z,9.57
2022-09-18T04:50:37.936Z,9.62
2022-09-18T04:53:05.550Z,9.68
2022-09-18T04:55:33.154Z,9.67
2022-09-18T04:58:00.784Z,9.62
2022-09-18T05:00:28.753Z,9.55
2022-09-18T05:02:56.407Z,9.55
2022-09-18T05:05:24.667Z,9.60
2022-09-18T05:07:53.643Z,9.67
2022-09-18T05:10:21.324Z,9.68
2022-09-18T05:12:49.450Z,9.61
2022-09-18T05:15:18.894Z,9.58
2022-09-18T05:17:46.476Z,9.60
2022-09-18T05:20:14.821Z,9.54
2022-09-18T05:22:46.866Z,9.66
2022-09-18T05:25:16.090Z,9.70
2022-09-18T05:27:43.657Z,9.67
2022-09-18T05:30:11.973Z,9.67
2022-09-18T05:32:39.528Z,9.66
2022-09-18T05:35:07.768Z,9.68
2022-09-18T05:37:35.372Z,9.76
2022-09-18T05:40:03.421Z,9.79
2022-09-18T05:42:32.394Z,9.83
2022-09-18T05:52:22.295Z,9.77
2022-09-18T05:54:48.565Z,9.82
2022-09-18T05:57:14.792Z,9.85
2022-09-18T05:59:41.012Z,9.85
2022-09-18T06:02:09.423Z,9.91
2022-09-18T06:04:35.664Z,9.83
2022-09-18T06:07:01.928Z,9.87
2022-09-18T06:15:49.234Z,10.08
2022-09-18T06:18:15.738Z,10.01
2022-09-18T06:20:44.134Z,9.95
2022-09-18T06:23:12.015Z,9.90
2022-09-18T06:25:39.578Z,9.94
2022-09-18T06:28:07.187Z,9.87
2022-09-18T06:30:36.871Z,9.95
2022-09-18T06:33:07.331Z,9.86
2022-09-18T06:35:36.305Z,9.88
2022-09-18T06:38:04.482Z,9.98
2022-09-18T06:40:33.010Z,10.02
2022-09-18T06:43:02.640Z,10.01
2022-09-18T06:45:32.220Z,9.96
2022-09-18T06:48:02.344Z,9.96
2022-09-18T06:50:31.454Z,9.90
2022-09-18T06:53:02.268Z,9.80
2022-09-18T06:55:30.059Z,9.78
2022-09-18T06:57:58.683Z,9.84
2022-09-18T07:00:27.914Z,9.83
2022-09-18T07:02:56.978Z,9.77
2022-09-18T07:05:25.295Z,9.79
2022-09-18T07:07:54.713Z,9.85
2022-09-18T07:10:22.467Z,9.80
2022-09-18T07:12:50.053Z,9.80
2022-09-18T07:15:18.379Z,9.82
2022-09-18T07:17:46.621Z,9.76
2022-09-18T07:20:15.131Z,9.82
2022-09-18T07:22:47.258Z,9.87
2022-09-18T07:25:16.653Z,9.91
2022-09-18T07:27:44.739Z,9.97
2022-09-18T07:30:13.405Z,9.96
2022-09-18T07:32:41.009Z,9.93
2022-09-18T07:35:09.695Z,9.85
2022-09-18T07:37:37.777Z,9.91
2022-09-18T07:40:06.035Z,9.92
2022-09-18T07:42:35.662Z,9.94
2022-09-18T07:45:03.271Z,9.89
2022-09-18T07:47:30.899Z,9.91
2022-09-18T07:49:58.476Z,9.91
2022-09-18T07:52:26.056Z,10.01
2022-09-18T07:54:53.790Z,10.00
2022-09-18T07:57:21.455Z,10.01
2022-09-18T07:59:50.404Z,9.88
2022-09-18T08:02:20.624Z,9.98
2022-09-18T08:04:48.288Z,10.04
2022-09-18T08:07:15.950Z,10.03
2022-09-18T08:09:43.575Z,10.03
2022-09-18T08:12:11.128Z,9.99
2022-09-18T08:14:38.718Z,9.93
2022-09-18T08:17:07.881Z,9.98
2022-09-18T08:19:35.430Z,9.96
2022-09-18T08:22:03.018Z,10.03
2022-09-18T08:24:30.629Z,10.05
2022-09-18T08:27:03.352Z,10.04
2022-09-18T08:29:31.219Z,10.03
2022-09-18T08:31:59.082Z,10.05
2022-09-18T08:34:28.105Z,10.07
2022-09-18T08:36:56.386Z,10.15
2022-09-18T08:39:24.056Z,10.14
2022-09-18T08:42:03.353Z,10.18
2022-09-18T08:44:34.301Z,10.25
2022-09-18T08:47:06.147Z,10.26
2022-09-18T08:49:40.516Z,10.20
2022-09-18T08:52:15.099Z,10.18
2022-09-18T08:54:50.340Z,10.24
2022-09-18T08:57:23.133Z,10.25
2022-09-18T08:59:54.709Z,10.24
2022-09-18T09:02:38.492Z,10.23
2022-09-18T09:05:12.300Z,10.27
2022-09-18T09:08:04.516Z,10.31
2022-09-18T09:10:42.042Z,10.39
2022-09-18T09:13:25.372Z,10.44
2022-09-18T09:15:57.423Z,10.46
2022-09-18T09:18:32.926Z,10.51
2022-09-18T09:21:13.899Z,10.55
2022-09-18T09:23:55.200Z,10.55
2022-09-18T09:26:24.690Z,10.60
2022-09-18T09:28:56.444Z,10.59
2022-09-18T09:31:27.217Z,10.62
2022-09-18T09:33:59.628Z,10.64
2022-09-18T09:36:31.116Z,10.68
2022-09-18T09:39:06.028Z,10.68
2022-09-18T09:41:39.740Z,10.72
2022-09-18T09:44:24.198Z,10.72
2022-09-18T09:47:01.240Z,10.68
2022-09-18T09:49:31.182Z,10.74
2022-09-18T09:52:09.234Z,10.74
2022-09-18T09:54:37.458Z,10.78
2022-09-18T09:57:19.620Z,10.76
2022-09-18T09:59:53.510Z,10.79
2022-09-18T10:02:37.783Z,10.73
2022-09-18T10:05:16.695Z,10.78
2022-09-18T10:07:50.788Z,10.82
2022-09-18T10:10:28.936Z,10.94
2022-09-18T10:13:01.438Z,10.94
2022-09-18T10:15:36.276Z,10.97
2022-09-18T10:18:08.507Z,10.99
2022-09-18T10:20:37.554Z,10.98
2022-09-18T10:23:16.310Z,10.96
2022-09-18T10:25:50.799Z,10.99
2022-09-18T10:28:18.557Z,11.10
2022-09-18T10:30:55.124Z,11.12
2022-09-18T10:33:34.626Z,11.13
2022-09-18T10:36:09.911Z,11.09
2022-09-18T10:38:39.961Z,11.16
2022-09-18T10:41:25.784Z,11.22
2022-09-18T10:44:00.337Z,11.16
2022-09-18T10:46:30.550Z,11.14
2022-09-18T10:49:00.977Z,11.22
2022-09-18T10:51:29.331Z,11.23
2022-09-18T10:54:17.196Z,11.24
2022-09-18T10:56:45.146Z,11.27
2022-09-18T10:59:33.807Z,11.38
2022-09-18T11:02:03.709Z,11.34
2022-09-18T11:04:32.783Z,11.32
2022-09-18T11:07:03.229Z,11.34
2022-09-18T11:09:37.129Z,11.30
2022-09-18T11:12:05.175Z,11.24
2022-09-18T11:14:39.643Z,11.29
2022-09-18T11:17:15.602Z,11.25
2022-09-18T11:19:43.270Z,11.27
2022-09-18T11:22:35.201Z,11.30
2022-09-18T11:25:18.481Z,11.33
2022-09-18T11:27:48.624Z,11.34
2022-09-18T11:30:21.576Z,11.29
2022-09-18T11:32:52.511Z,11.29
2022-09-18T11:35:22.685Z,11.35
2022-09-18T11:37:54.064Z,11.40
2022-09-18T11:40:26.982Z,11.37
2022-09-18T11:42:55.969Z,11.45
2022-09-18T11:45:45.955Z,11.52
2022-09-18T11:48:24.925Z,11.54
2022-09-18T11:50:56.815Z,11.47
2022-09-18T11:53:28.206Z,11.47
2022-09-18T11:56:02.705Z,11.56
2022-09-18T11:58:35.832Z,11.56
2022-09-18T12:01:14.252Z,11.58
2022-09-18T12:03:47.477Z,11.65
2022-09-18T12:06:22.624Z,11.72
2022-09-18T12:08:55.981Z,11.75
2022-09-18T12:11:34.253Z,11.72
2022-09-18T12:14:13.002Z,11.71
2022-09-18T12:16:50.246Z,11.54
2022-09-18T12:19:23.248Z,11.42
2022-09-18T12:21:57.275Z,11.47
2022-09-18T12:24:25.063Z,11.45
2022-09-18T12:27:04.388Z,11.50
2022-09-18T12:29:49.108Z,11.52
2022-09-18T12:32:28.614Z,11.50
2022-09-18T12:35:07.052Z,11.51
2022-09-18T12:37:47.809Z,11.60
2022-09-18T12:40:55.649Z,11.60
2022-09-18T12:43:40.525Z,11.63
2022-09-18T12:46:21.409Z,11.64
2022-09-18T12:49:07.534Z,11.57
2022-09-18T12:51:41.106Z,11.58
2022-09-18T12:54:33.299Z,11.59
2022-09-18T12:57:15.925Z,11.56
2022-09-18T12:59:58.554Z,11.52
2022-09-18T13:02:38.984Z,11.43
2022-09-18T13:05:14.879Z,11.40
2022-09-18T13:07:46.297Z,11.31
2022-09-18T13:10:20.591Z,11.27
2022-09-18T13:12:54.839Z,11.35
2022-09-18T13:15:27.446Z,11.34
2022-09-18T13:18:02.532Z,11.43
2022-09-18T13:20:35.191Z,11.49
2022-09-18T13:23:03.672Z,11.57
2022-09-18T13:25:36.165Z,11.65
2022-09-18T13:28:08.506Z,11.73
2022-09-18T13:30:39.547Z,11.73
2022-09-18T13:33:07.395Z,11.72
2022-09-18T13:35:39.490Z,11.83
2022-09-18T13:38:20.350Z,11.94
2022-09-18T13:40:50.425Z,12.03
2022-09-18T13:43:25.621Z,12.09
2022-09-18T13:45:56.371Z,12.15
2022-09-18T13:48:29.670Z,12.06
2022-09-18T13:51:01.389Z,12.08
2022-09-18T13:53:39.383Z,12.13
2022-09-18T13:56:08.431Z,12.26
2022-09-18T13:58:52.583Z,12.34
2022-09-18T14:02:00.026Z,12.47
2022-09-18T14:05:04.413Z,12.34
2022-09-18T14:08:04.431Z,12.43
2022-09-18T14:11:14.175Z,12.34
2022-09-18T14:13:47.509Z,12.36
2022-09-18T14:16:29.681Z,12.43
2022-09-18T14:19:03.194Z,12.45
2022-09-18T14:21:33.158Z,12.46
2022-09-18T14:24:25.309Z,12.29
2022-09-18T14:27:23.935Z,12.27
2022-09-18T14:29:59.215Z,12.24
2022-09-18T14:32:28.431Z,12.30
2022-09-18T14:35:22.797Z,12.36
2022-09-18T14:37:50.638Z,12.37
2022-09-18T14:40:22.547Z,12.32
2022-09-18T14:42:50.831Z,12.30
2022-09-18T14:45:28.417Z,12.27
2022-09-18T14:47:57.049Z,12.31
2022-09-18T14:50:34.803Z,12.30
2022-09-18T14:53:04.260Z,12.33
2022-09-18T14:55:37.251Z,12.38
2022-09-18T14:58:08.339Z,12.41
2022-09-18T15:00:38.643Z,12.42
2022-09-18T15:03:09.681Z,12.37
2022-09-18T15:05:37.835Z,12.35
2022-09-18T15:08:09.060Z,12.36
2022-09-18T15:10:40.983Z,12.36
2022-09-18T15:13:13.667Z,12.40
2022-09-18T15:15:43.255Z,12.45
2022-09-18T15:18:23.590Z,12.50
2022-09-18T15:20:52.521Z,12.44
2022-09-18T15:23:21.494Z,12.39
2022-09-18T15:25:54.484Z,12.42
2022-09-18T15:28:25.963Z,12.50
2022-09-18T15:30:58.188Z,12.53
2022-09-18T15:33:27.436Z,12.58
2022-09-18T15:35:56.459Z,12.63
2022-09-18T15:38:26.901Z,12.63
2022-09-18T15:40:56.179Z,12.52
2022-09-18T15:43:43.594Z,12.64
2022-09-18T15:46:13.382Z,12.74
2022-09-18T15:48:45.198Z,12.83
2022-09-18T15:51:16.918Z,12.74
2022-09-18T15:54:07.636Z,12.63
2022-09-18T15:56:39.547Z,12.83
2022-09-18T15:59:18.198Z,12.77
2022-09-18T16:01:48.467Z,12.64
2022-09-18T16:04:20.248Z,12.66
2022-09-18T16:07:01.472Z,12.65
2022-09-18T16:09:40.161Z,12.66
2022-09-18T16:13:06.238Z,12.65
2022-09-18T16:15:35.665Z,12.67
2022-09-18T16:18:06.408Z,12.72
2022-09-18T16:20:38.470Z,12.76
2022-09-18T16:23:15.128Z,12.82
2022-09-18T16:25:43.665Z,12.80
2022-09-18T16:28:25.242Z,12.70
2022-09-18T16:30:55.494Z,12.58
2022-09-18T16:33:26.940Z,12.61
2022-09-18T16:35:57.234Z,12.61
2022-09-18T16:38:24.874Z,12.60
2022-09-18T16:40:52.524Z,12.57
2022-09-18T16:43:20.138Z,12.60
2022-09-18T16:45:48.428Z,12.69
2022-09-18T16:48:18.151Z,12.68
2022-09-18T16:50:47.476Z,12.63
2022-09-18T16:53:15.523Z,12.55
2022-09-18T16:55:47.094Z,12.58
2022-09-18T16:58:16.359Z,12.57
2022-09-18T17:00:44.022Z,12.60
2022-09-18T17:03:12.699Z,12.57
2022-09-18T17:05:41.678Z,12.58
2022-09-18T17:08:09.267Z,12.58
2022-09-18T17:10:37.161Z,12.57
2022-09-18T17:13:05.220Z,12.57
2022-09-18T17:15:32.830Z,12.54
2022-09-18T17:18:00.425Z,12.54
2022-09-18T17:20:28.080Z,12.51
2022-09-18T17:22:57.090Z,12.51
2022-09-18T17:25:24.634Z,12.54
2022-09-18T17:27:52.741Z,12.51
2022-09-18T17:30:21.238Z,12.54
2022-09-18T17:32:49.134Z,12.60
2022-09-18T17:35:16.976Z,12.59
2022-09-18T17:37:44.762Z,12.63
2022-09-18T17:40:13.786Z,12.66
2022-09-18T17:42:41.515Z,12.70
2022-09-18T17:45:10.083Z,12.75
2022-09-18T17:47:37.736Z,12.62
2022-09-18T17:50:06.503Z,12.63
2022-09-18T17:52:35.615Z,12.67
2022-09-18T17:55:03.463Z,12.61
2022-09-18T17:57:32.822Z,12.62
2022-09-18T18:00:00.400Z,12.64
2022-09-18T18:02:28.092Z,12.62
2022-09-18T18:04:55.724Z,12.62
2022-09-18T18:07:23.542Z,12.62
2022-09-18T18:09:51.157Z,12.63
2022-09-18T18:12:18.755Z,12.55
2022-09-18T18:14:47.843Z,12.59
2022-09-18T18:17:15.497Z,12.60
2022-09-18T18:19:43.090Z,12.64
2022-09-18T18:22:10.694Z,12.66
2022-09-18T18:24:38.679Z,12.71
2022-09-18T18:27:06.405Z,12.62
2022-09-18T18:29:34.434Z,12.56
2022-09-18T18:32:03.803Z,12.55
2022-09-18T18:34:32.727Z,12.55
2022-09-18T18:37:00.618Z,12.51
2022-09-18T18:39:28.338Z,12.46
2022-09-18T18:41:55.882Z,12.45
2022-09-18T18:44:23.518Z,12.46
2022-09-18T18:46:51.253Z,12.41
2022-09-18T18:49:20.374Z,12.41
2022-09-18T18:51:50.061Z,12.43
2022-09-18T18:54:20.356Z,12.43
2022-09-18T18:56:48.880Z,12.43
2022-09-18T18:59:18.325Z,12.36
2022-09-18T19:01:47.290Z,12.39
2022-09-18T19:04:18.905Z,12.39
2022-09-18T19:06:48.652Z,12.25
2022-09-18T19:09:20.481Z,12.25
2022-09-18T19:11:49.836Z,12.23
2022-09-18T19:14:18.795Z,12.21
2022-09-18T19:16:47.352Z,12.14
2022-09-18T19:19:16.551Z,12.13
2022-09-18T19:21:44.515Z,12.18
2022-09-18T19:24:14.118Z,12.20
2022-09-18T19:26:43.226Z,12.20
2022-09-18T19:29:13.391Z,12.19
2022-09-18T19:31:42.788Z,12.21
2022-09-18T19:34:12.164Z,12.27
2022-09-18T19:36:39.828Z,12.29
2022-09-18T19:39:11.354Z,12.23
2022-09-18T19:41:44.343Z,12.19
2022-09-18T19:44:17.765Z,12.10
2022-09-18T19:46:48.080Z,12.08
2022-09-18T19:49:18.785Z,12.13
2022-09-18T19:51:46.861Z,12.09
2022-09-18T19:54:14.712Z,12.14
2022-09-18T19:56:48.147Z,12.10
2022-09-18T19:59:16.219Z,12.07
2022-09-18T20:01:44.989Z,12.05
2022-09-18T20:04:12.751Z,12.00
2022-09-18T20:06:42.342Z,11.98
2022-09-18T20:09:10.719Z,12.02
2022-09-18T20:11:38.453Z,11.95
2022-09-18T20:14:07.499Z,11.98
2022-09-18T20:16:35.229Z,11.95
2022-09-18T20:19:02.943Z,11.98
2022-09-18T20:21:30.741Z,12.01
2022-09-18T20:23:59.319Z,12.01
2022-09-18T20:26:28.765Z,12.01
2022-09-18T20:28:56.508Z,12.03
2022-09-18T20:31:25.716Z,12.11
2022-09-18T20:33:57.378Z,12.11
2022-09-18T20:36:26.005Z,12.08
2022-09-18T20:38:57.813Z,12.08
2022-09-18T20:41:28.267Z,12.11
2022-09-18T20:43:56.611Z,12.06
2022-09-18T20:46:27.513Z,12.10
2022-09-18T20:48:55.972Z,12.09
2022-09-18T20:51:26.523Z,12.06
2022-09-18T20:53:57.224Z,12.07
2022-09-18T20:56:26.402Z,12.08
2022-09-18T21:10:48.895Z,12.09
2022-09-18T21:13:17.726Z,12.14
2022-09-18T21:15:48.634Z,12.13
2022-09-18T21:18:16.771Z,12.18
2022-09-18T21:20:44.676Z,12.22
2022-09-18T21:23:40.433Z,12.24
2022-09-18T21:29:01.525Z,12.16
2022-09-18T21:31:29.940Z,12.11
2022-09-18T21:34:00.167Z,12.07
2022-09-18T21:36:28.592Z,12.11
2022-09-18T21:38:57.482Z,12.13
2022-09-18T21:41:26.282Z,12.09
2022-09-18T21:43:57.432Z,12.07
2022-09-18T21:46:25.353Z,12.02
2022-09-18T21:48:56.665Z,11.95
2022-09-18T21:51:24.366Z,11.83
2022-09-18T21:53:52.211Z,11.79
2022-09-18T21:56:21.777Z,11.78
2022-09-18T21:58:50.263Z,11.84
2022-09-18T22:01:19.715Z,11.79
2022-09-18T22:03:53.305Z,11.63
2022-09-18T22:06:23.275Z,11.53
2022-09-18T22:08:54.468Z,11.45
2022-09-18T22:11:26.261Z,11.32
2022-09-18T22:13:54.628Z,11.26
2022-09-18T22:16:23.395Z,11.08
2022-09-18T22:18:51.101Z,10.98
2022-09-18T22:21:20.631Z,10.93
2022-09-18T22:23:52.829Z,10.86
2022-09-18T22:26:22.029Z,10.81
2022-09-18T22:28:53.463Z,10.71
2022-09-18T22:31:21.911Z,10.67
2022-09-18T22:33:53.505Z,10.61
2022-09-18T22:36:21.610Z,10.56
2022-09-18T22:38:49.314Z,10.59
2022-09-18T22:41:17.056Z,10.54
2022-09-18T22:43:45.639Z,10.55
2022-09-18T22:46:16.861Z,10.58
2022-09-18T22:48:45.066Z,10.59
2022-09-18T22:51:15.023Z,10.65
2022-09-18T22:53:48.180Z,10.58
2022-09-18T22:56:17.090Z,10.56
2022-09-18T22:58:45.199Z,10.55
2022-09-18T23:01:18.187Z,10.56
2022-09-18T23:03:47.119Z,10.50
2022-09-18T23:06:15.563Z,10.55
2022-09-18T23:08:43.893Z,10.55
2022-09-18T23:11:13.775Z,10.48
2022-09-18T23:13:42.931Z,10.42
2022-09-18T23:16:12.998Z,10.54
2022-09-18T23:18:43.456Z,10.54
2022-09-18T23:21:13.749Z,10.54
2022-09-18T23:23:43.563Z,10.48
2022-09-18T23:26:12.624Z,10.50
2022-09-18T23:28:45.941Z,10.43
2022-09-18T23:31:15.474Z,10.46
2022-09-18T23:33:48.482Z,10.46
2022-09-18T23:36:18.280Z,10.55
2022-09-18T23:38:46.478Z,10.52
2022-09-18T23:41:17.268Z,10.50
2022-09-18T23:43:47.119Z,10.40
2022-09-18T23:46:15.401Z,10.33
2022-09-18T23:48:45.288Z,10.24
2022-09-18T23:51:13.276Z,10.27
2022-09-18T23:53:42.539Z,10.28
2022-09-18T23:56:13.158Z,10.35
2022-09-18T23:58:41.808Z,10.36
